sensor_id;sensor_type;location;lat;lon;timestamp;temperature;humidity
13970;DHT22;7057;49.984;8.404;2022-08-14T00:01:11;23.80;99.90
13970;DHT22;7057;49.984;8.404;2022-08-14T00:03:38;23.70;99.90
13970;DHT22;7057;49.984;8.404;2022-08-14T00:06:05;23.70;99.90
13970;DHT22;7057;49.984;8.404;2022-08-14T00:08:34;23.70;99.90
13970;DHT22;7057;49.984;8.404;2022-08-14T00:11:01;23.70;99.90
13970;DHT22;7057;49.984;8.404;2022-08-14T00:13:28;23.70;99.90
13970;DHT22;7057;49.984;8.404;2022-08-14T00:15:57;23.70;99.90
13970;DHT22;7057;49.984;8.404;2022-08-14T00:18:26;23.60;99.90
13970;DHT22;7057;49.984;8.404;2022-08-14T00:20:55;23.60;99.90
13970;DHT22;7057;49.984;8.404;2022-08-14T00:23:23;23.60;99.90
13970;DHT22;7057;49.984;8.404;2022-08-14T00:25:53;23.50;99.90
13970;DHT22;7057;49.984;8.404;2022-08-14T00:28:20;23.60;99.90
13970;DHT22;7057;49.984;8.404;2022-08-14T00:30:54;23.60;99.90
13970;DHT22;7057;49.984;8.404;2022-08-14T00:33:23;23.50;99.90
13970;DHT22;7057;49.984;8.404;2022-08-14T00:35:50;23.50;99.90
13970;DHT22;7057;49.984;8.404;2022-08-14T00:38:18;23.50;99.90
13970;DHT22;7057;49.984;8.404;2022-08-14T00:40:46;23.40;99.90
13970;DHT22;7057;49.984;8.404;2022-08-14T00:43:14;23.40;99.90
13970;DHT22;7057;49.984;8.404;2022-08-14T00:45:42;23.40;99.90
13970;DHT22;7057;49.984;8.404;2022-08-14T00:48:09;23.40;99.90
13970;DHT22;7057;49.984;8.404;2022-08-14T00:50:37;23.30;99.90
13970;DHT22;7057;49.984;8.404;2022-08-14T00:53:05;23.30;99.90
13970;DHT22;7057;49.984;8.404;2022-08-14T00:55:35;23.20;99.90
13970;DHT22;7057;49.984;8.404;2022-08-14T00:58:06;23.20;99.90
13970;DHT22;7057;49.984;8.404;2022-08-14T01:00:52;23.10;99.90
13970;DHT22;7057;49.984;8.404;2022-08-14T01:03:20;23.10;99.90
13970;DHT22;7057;49.984;8.404;2022-08-14T01:05:50;23.00;99.90
13970;DHT22;7057;49.984;8.404;2022-08-14T01:08:21;23.00;99.90
13970;DHT22;7057;49.984;8.404;2022-08-14T01:10:49;23.00;99.90
13970;DHT22;7057;49.984;8.404;2022-08-14T01:13:18;22.90;99.90
13970;DHT22;7057;49.984;8.404;2022-08-14T01:15:48;22.80;99.90
13970;DHT22;7057;49.984;8.404;2022-08-14T01:18:18;22.80;99.90
13970;DHT22;7057;49.984;8.404;2022-08-14T01:21:05;22.80;99.90
13970;DHT22;7057;49.984;8.404;2022-08-14T01:23:39;22.70;99.90
13970;DHT22;7057;49.984;8.404;2022-08-14T01:26:08;22.70;99.90
13970;DHT22;7057;49.984;8.404;2022-08-14T01:28:36;22.60;99.90
13970;DHT22;7057;49.984;8.404;2022-08-14T01:31:05;22.60;99.90
13970;DHT22;7057;49.984;8.404;2022-08-14T01:33:35;22.60;99.90
13970;DHT22;7057;49.984;8.404;2022-08-14T01:36:07;22.60;99.90
13970;DHT22;7057;49.984;8.404;2022-08-14T01:38:35;22.60;99.90
13970;DHT22;7057;49.984;8.404;2022-08-14T01:41:07;22.50;99.90
13970;DHT22;7057;49.984;8.404;2022-08-14T01:43:43;22.40;99.90
13970;DHT22;7057;49.984;8.404;2022-08-14T01:46:10;22.40;99.90
13970;DHT22;7057;49.984;8.404;2022-08-14T01:48:38;22.30;99.90
13970;DHT22;7057;49.984;8.404;2022-08-14T01:51:10;22.20;99.90
13970;DHT22;7057;49.984;8.404;2022-08-14T01:53:40;22.20;99.90
13970;DHT22;7057;49.984;8.404;2022-08-14T01:56:08;22.20;99.90
13970;DHT22;7057;49.984;8.404;2022-08-14T01:58:36;22.20;99.90
13970;DHT22;7057;49.984;8.404;2022-08-14T02:01:04;22.20;99.90
13970;DHT22;7057;49.984;8.404;2022-08-14T02:03:38;22.10;99.90
13970;DHT22;7057;49.984;8.404;2022-08-14T02:06:06;22.10;99.90
13970;DHT22;7057;49.984;8.404;2022-08-14T02:08:33;21.90;99.90
13970;DHT22;7057;49.984;8.404;2022-08-14T02:11:04;22.10;99.90
13970;DHT22;7057;49.984;8.404;2022-08-14T02:13:52;22.10;99.90
13970;DHT22;7057;49.984;8.404;2022-08-14T02:16:24;22.10;99.90
13970;DHT22;7057;49.984;8.404;2022-08-14T02:18:53;22.10;99.90
13970;DHT22;7057;49.984;8.404;2022-08-14T02:21:20;22.10;99.90
13970;DHT22;7057;49.984;8.404;2022-08-14T02:23:49;22.10;99.90
13970;DHT22;7057;49.984;8.404;2022-08-14T02:26:19;22.00;99.90
13970;DHT22;7057;49.984;8.404;2022-08-14T02:28:51;22.00;99.90
13970;DHT22;7057;49.984;8.404;2022-08-14T02:31:19;22.00;99.90
13970;DHT22;7057;49.984;8.404;2022-08-14T02:33:46;22.00;99.90
13970;DHT22;7057;49.984;8.404;2022-08-14T02:36:14;21.90;99.90
13970;DHT22;7057;49.984;8.404;2022-08-14T02:38:42;21.90;99.90
13970;DHT22;7057;49.984;8.404;2022-08-14T02:41:11;21.90;99.90
13970;DHT22;7057;49.984;8.404;2022-08-14T02:43:39;21.90;99.90
13970;DHT22;7057;49.984;8.404;2022-08-14T02:46:10;21.80;99.90
13970;DHT22;7057;49.984;8.404;2022-08-14T02:48:40;21.80;99.90
13970;DHT22;7057;49.984;8.404;2022-08-14T02:51:10;21.80;99.90
13970;DHT22;7057;49.984;8.404;2022-08-14T02:53:39;21.80;99.90
13970;DHT22;7057;49.984;8.404;2022-08-14T02:56:08;21.70;99.90
13970;DHT22;7057;49.984;8.404;2022-08-14T02:58:37;21.70;99.90
13970;DHT22;7057;49.984;8.404;2022-08-14T03:01:08;21.70;99.90
13970;DHT22;7057;49.984;8.404;2022-08-14T03:03:36;21.70;99.90
13970;DHT22;7057;49.984;8.404;2022-08-14T03:06:04;21.60;99.90
13970;DHT22;7057;49.984;8.404;2022-08-14T03:08:32;21.60;99.90
13970;DHT22;7057;49.984;8.404;2022-08-14T03:11:00;21.60;99.90
13970;DHT22;7057;49.984;8.404;2022-08-14T03:13:31;21.60;99.90
13970;DHT22;7057;49.984;8.404;2022-08-14T03:16:00;21.50;99.90
13970;DHT22;7057;49.984;8.404;2022-08-14T03:18:29;21.50;99.90
13970;DHT22;7057;49.984;8.404;2022-08-14T03:21:00;21.50;99.90
13970;DHT22;7057;49.984;8.404;2022-08-14T03:23:27;21.50;99.90
13970;DHT22;7057;49.984;8.404;2022-08-14T03:26:00;21.40;99.90
13970;DHT22;7057;49.984;8.404;2022-08-14T03:28:29;21.40;99.90
13970;DHT22;7057;49.984;8.404;2022-08-14T03:30:57;21.40;99.90
13970;DHT22;7057;49.984;8.404;2022-08-14T03:33:24;21.30;99.90
13970;DHT22;7057;49.984;8.404;2022-08-14T03:35:53;21.30;99.90
13970;DHT22;7057;49.984;8.404;2022-08-14T03:38:20;21.30;99.90
13970;DHT22;7057;49.984;8.404;2022-08-14T03:40:48;21.30;99.90
13970;DHT22;7057;49.984;8.404;2022-08-14T03:43:15;21.30;99.90
13970;DHT22;7057;49.984;8.404;2022-08-14T03:45:42;21.20;99.90
13970;DHT22;7057;49.984;8.404;2022-08-14T03:48:11;21.20;99.90
13970;DHT22;7057;49.984;8.404;2022-08-14T03:50:43;21.20;99.90
13970;DHT22;7057;49.984;8.404;2022-08-14T03:53:13;21.20;99.90
13970;DHT22;7057;49.984;8.404;2022-08-14T03:55:41;21.20;99.90
13970;DHT22;7057;49.984;8.404;2022-08-14T03:58:09;21.20;99.90
13970;DHT22;7057;49.984;8.404;2022-08-14T04:00:38;21.20;99.90
13970;DHT22;7057;49.984;8.404;2022-08-14T04:03:08;21.20;99.90
13970;DHT22;7057;49.984;8.404;2022-08-14T04:05:36;21.20;99.90
13970;DHT22;7057;49.984;8.404;2022-08-14T04:08:03;21.20;99.90
13970;DHT22;7057;49.984;8.404;2022-08-14T04:10:32;21.10;99.90
13970;DHT22;7057;49.984;8.404;2022-08-14T04:13:00;21.20;99.90
13970;DHT22;7057;49.984;8.404;2022-08-14T04:15:29;21.10;99.90
13970;DHT22;7057;49.984;8.404;2022-08-14T04:17:56;21.10;99.90
13970;DHT22;7057;49.984;8.404;2022-08-14T04:20:24;21.10;99.90
13970;DHT22;7057;49.984;8.404;2022-08-14T04:22:51;21.10;99.90
13970;DHT22;7057;49.984;8.404;2022-08-14T04:25:19;21.00;99.90
13970;DHT22;7057;49.984;8.404;2022-08-14T04:27:47;21.00;99.90
13970;DHT22;7057;49.984;8.404;2022-08-14T04:30:14;20.90;99.90
13970;DHT22;7057;49.984;8.404;2022-08-14T04:32:41;20.90;99.90
13970;DHT22;7057;49.984;8.404;2022-08-14T04:35:10;20.90;99.90
13970;DHT22;7057;49.984;8.404;2022-08-14T04:37:37;20.90;99.90
13970;DHT22;7057;49.984;8.404;2022-08-14T04:40:22;20.90;99.90
13970;DHT22;7057;49.984;8.404;2022-08-14T04:43:07;20.90;99.90
13970;DHT22;7057;49.984;8.404;2022-08-14T04:45:52;20.90;99.90
13970;DHT22;7057;49.984;8.404;2022-08-14T04:48:19;20.90;99.90
13970;DHT22;7057;49.984;8.404;2022-08-14T04:50:47;20.90;99.90
13970;DHT22;7057;49.984;8.404;2022-08-14T04:53:18;20.90;99.90
13970;DHT22;7057;49.984;8.404;2022-08-14T04:55:47;21.00;99.90
13970;DHT22;7057;49.984;8.404;2022-08-14T04:58:17;21.00;99.90
13970;DHT22;7057;49.984;8.404;2022-08-14T05:00:45;21.10;99.90
13970;DHT22;7057;49.984;8.404;2022-08-14T05:03:15;21.10;99.90
13970;DHT22;7057;49.984;8.404;2022-08-14T05:05:46;21.10;99.90
13970;DHT22;7057;49.984;8.404;2022-08-14T05:08:13;21.20;99.90
13970;DHT22;7057;49.984;8.404;2022-08-14T05:10:43;21.30;99.90
13970;DHT22;7057;49.984;8.404;2022-08-14T05:13:11;21.30;99.90
13970;DHT22;7057;49.984;8.404;2022-08-14T05:15:40;21.40;99.90
13970;DHT22;7057;49.984;8.404;2022-08-14T05:18:11;21.40;99.90
13970;DHT22;7057;49.984;8.404;2022-08-14T05:20:38;21.50;99.90
13970;DHT22;7057;49.984;8.404;2022-08-14T05:23:11;21.50;99.90
13970;DHT22;7057;49.984;8.404;2022-08-14T05:25:39;21.60;99.90
13970;DHT22;7057;49.984;8.404;2022-08-14T05:28:08;21.70;99.90
13970;DHT22;7057;49.984;8.404;2022-08-14T05:30:36;21.70;99.90
13970;DHT22;7057;49.984;8.404;2022-08-14T05:33:04;21.70;99.90
13970;DHT22;7057;49.984;8.404;2022-08-14T05:35:32;21.80;99.90
13970;DHT22;7057;49.984;8.404;2022-08-14T05:37:59;21.80;99.90
13970;DHT22;7057;49.984;8.404;2022-08-14T05:40:26;21.90;99.90
13970;DHT22;7057;49.984;8.404;2022-08-14T05:42:53;21.90;99.90
13970;DHT22;7057;49.984;8.404;2022-08-14T05:45:21;22.00;99.90
13970;DHT22;7057;49.984;8.404;2022-08-14T05:47:48;22.10;99.90
13970;DHT22;7057;49.984;8.404;2022-08-14T05:50:16;22.10;99.90
13970;DHT22;7057;49.984;8.404;2022-08-14T05:52:44;22.20;99.90
13970;DHT22;7057;49.984;8.404;2022-08-14T05:55:11;22.30;99.90
13970;DHT22;7057;49.984;8.404;2022-08-14T05:57:46;22.30;99.90
13970;DHT22;7057;49.984;8.404;2022-08-14T06:00:15;22.40;99.90
13970;DHT22;7057;49.984;8.404;2022-08-14T06:02:43;22.50;99.90
13970;DHT22;7057;49.984;8.404;2022-08-14T06:05:11;22.50;99.90
13970;DHT22;7057;49.984;8.404;2022-08-14T06:07:39;22.50;99.90
13970;DHT22;7057;49.984;8.404;2022-08-14T06:10:08;22.60;99.90
13970;DHT22;7057;49.984;8.404;2022-08-14T06:12:36;22.70;99.90
13970;DHT22;7057;49.984;8.404;2022-08-14T06:15:05;22.80;99.90
13970;DHT22;7057;49.984;8.404;2022-08-14T06:17:42;22.80;99.90
13970;DHT22;7057;49.984;8.404;2022-08-14T06:20:10;22.90;99.90
13970;DHT22;7057;49.984;8.404;2022-08-14T06:22:40;23.00;99.90
13970;DHT22;7057;49.984;8.404;2022-08-14T06:25:09;23.00;99.90
13970;DHT22;7057;49.984;8.404;2022-08-14T06:27:37;23.00;99.90
13970;DHT22;7057;49.984;8.404;2022-08-14T06:30:06;23.00;99.90
13970;DHT22;7057;49.984;8.404;2022-08-14T06:32:34;23.10;99.90
13970;DHT22;7057;49.984;8.404;2022-08-14T06:35:06;23.20;99.90
13970;DHT22;7057;49.984;8.404;2022-08-14T06:37:44;23.30;99.90
13970;DHT22;7057;49.984;8.404;2022-08-14T06:40:14;23.40;99.90
13970;DHT22;7057;49.984;8.404;2022-08-14T06:42:41;23.50;99.90
13970;DHT22;7057;49.984;8.404;2022-08-14T06:45:09;23.60;99.90
13970;DHT22;7057;49.984;8.404;2022-08-14T06:47:38;23.70;99.90
13970;DHT22;7057;49.984;8.404;2022-08-14T06:50:08;23.80;99.90
13970;DHT22;7057;49.984;8.404;2022-08-14T06:52:36;23.80;99.90
13970;DHT22;7057;49.984;8.404;2022-08-14T06:55:07;23.70;99.90
13970;DHT22;7057;49.984;8.404;2022-08-14T06:57:36;23.70;99.90
13970;DHT22;7057;49.984;8.404;2022-08-14T07:00:06;23.70;99.90
13970;DHT22;7057;49.984;8.404;2022-08-14T07:02:34;23.80;99.90
13970;DHT22;7057;49.984;8.404;2022-08-14T07:05:18;23.80;99.90
13970;DHT22;7057;49.984;8.404;2022-08-14T07:08:04;24.00;99.90
13970;DHT22;7057;49.984;8.404;2022-08-14T07:10:32;24.00;99.90
13970;DHT22;7057;49.984;8.404;2022-08-14T07:12:59;24.00;99.90
13970;DHT22;7057;49.984;8.404;2022-08-14T07:15:26;24.00;99.90
13970;DHT22;7057;49.984;8.404;2022-08-14T07:17:53;24.20;99.90
13970;DHT22;7057;49.984;8.404;2022-08-14T07:20:21;24.30;99.90
13970;DHT22;7057;49.984;8.404;2022-08-14T07:22:48;24.50;99.90
13970;DHT22;7057;49.984;8.404;2022-08-14T07:25:15;24.50;99.90
13970;DHT22;7057;49.984;8.404;2022-08-14T07:27:44;24.50;99.90
13970;DHT22;7057;49.984;8.404;2022-08-14T07:30:11;24.50;99.90
13970;DHT22;7057;49.984;8.404;2022-08-14T07:32:39;24.50;99.90
13970;DHT22;7057;49.984;8.404;2022-08-14T07:35:06;24.50;99.90
13970;DHT22;7057;49.984;8.404;2022-08-14T07:37:34;24.60;99.90
13970;DHT22;7057;49.984;8.404;2022-08-14T07:40:02;24.70;99.90
13970;DHT22;7057;49.984;8.404;2022-08-14T07:42:30;24.70;99.90
13970;DHT22;7057;49.984;8.404;2022-08-14T07:44:59;24.90;99.90
13970;DHT22;7057;49.984;8.404;2022-08-14T07:47:26;25.10;99.90
13970;DHT22;7057;49.984;8.404;2022-08-14T07:50:00;25.10;99.90
13970;DHT22;7057;49.984;8.404;2022-08-14T07:52:28;25.10;99.90
13970;DHT22;7057;49.984;8.404;2022-08-14T07:54:55;25.30;99.90
13970;DHT22;7057;49.984;8.404;2022-08-14T07:57:22;25.50;99.90
13970;DHT22;7057;49.984;8.404;2022-08-14T07:59:51;25.70;99.90
13970;DHT22;7057;49.984;8.404;2022-08-14T08:02:19;25.60;99.90
13970;DHT22;7057;49.984;8.404;2022-08-14T08:04:49;25.60;99.90
13970;DHT22;7057;49.984;8.404;2022-08-14T08:07:18;25.60;99.90
13970;DHT22;7057;49.984;8.404;2022-08-14T08:09:48;25.70;99.90
13970;DHT22;7057;49.984;8.404;2022-08-14T08:12:19;25.90;99.90
13970;DHT22;7057;49.984;8.404;2022-08-14T08:14:47;26.10;99.90
13970;DHT22;7057;49.984;8.404;2022-08-14T08:17:17;26.30;99.90
13970;DHT22;7057;49.984;8.404;2022-08-14T08:19:46;26.20;99.90
13970;DHT22;7057;49.984;8.404;2022-08-14T08:22:13;26.20;99.90
13970;DHT22;7057;49.984;8.404;2022-08-14T08:24:41;26.40;99.90
13970;DHT22;7057;49.984;8.404;2022-08-14T08:27:14;26.20;99.90
13970;DHT22;7057;49.984;8.404;2022-08-14T08:29:42;26.10;99.90
13970;DHT22;7057;49.984;8.404;2022-08-14T08:32:09;26.30;99.90
13970;DHT22;7057;49.984;8.404;2022-08-14T08:34:43;26.50;99.90
13970;DHT22;7057;49.984;8.404;2022-08-14T08:37:13;26.60;99.90
13970;DHT22;7057;49.984;8.404;2022-08-14T08:39:44;26.80;99.90
13970;DHT22;7057;49.984;8.404;2022-08-14T08:42:11;26.90;99.90
13970;DHT22;7057;49.984;8.404;2022-08-14T08:44:38;27.10;99.90
13970;DHT22;7057;49.984;8.404;2022-08-14T08:47:05;27.10;99.90
13970;DHT22;7057;49.984;8.404;2022-08-14T08:49:35;27.20;99.90
13970;DHT22;7057;49.984;8.404;2022-08-14T08:52:04;27.30;99.90
13970;DHT22;7057;49.984;8.404;2022-08-14T08:54:34;27.40;99.90
13970;DHT22;7057;49.984;8.404;2022-08-14T08:57:10;27.50;99.90
13970;DHT22;7057;49.984;8.404;2022-08-14T08:59:38;27.60;99.90
13970;DHT22;7057;49.984;8.404;2022-08-14T09:02:07;27.80;99.90
13970;DHT22;7057;49.984;8.404;2022-08-14T09:04:36;27.80;99.90
13970;DHT22;7057;49.984;8.404;2022-08-14T09:07:04;28.00;99.90
13970;DHT22;7057;49.984;8.404;2022-08-14T09:09:33;28.10;99.90
13970;DHT22;7057;49.984;8.404;2022-08-14T09:12:16;28.20;99.90
13970;DHT22;7057;49.984;8.404;2022-08-14T09:14:44;27.90;99.90
13970;DHT22;7057;49.984;8.404;2022-08-14T09:17:12;28.00;99.90
13970;DHT22;7057;49.984;8.404;2022-08-14T09:19:40;28.20;99.90
13970;DHT22;7057;49.984;8.404;2022-08-14T09:22:07;28.40;99.90
13970;DHT22;7057;49.984;8.404;2022-08-14T09:24:37;28.50;99.90
13970;DHT22;7057;49.984;8.404;2022-08-14T09:27:04;28.60;99.90
13970;DHT22;7057;49.984;8.404;2022-08-14T09:29:32;28.70;99.90
13970;DHT22;7057;49.984;8.404;2022-08-14T09:32:00;28.90;99.90
13970;DHT22;7057;49.984;8.404;2022-08-14T09:34:41;28.80;99.90
13970;DHT22;7057;49.984;8.404;2022-08-14T09:37:22;28.80;99.90
13970;DHT22;7057;49.984;8.404;2022-08-14T09:40:03;28.80;99.90
13970;DHT22;7057;49.984;8.404;2022-08-14T09:42:47;28.80;99.90
13970;DHT22;7057;49.984;8.404;2022-08-14T09:45:17;28.90;99.90
13970;DHT22;7057;49.984;8.404;2022-08-14T09:47:48;28.90;99.90
13970;DHT22;7057;49.984;8.404;2022-08-14T09:50:19;29.00;99.90
13970;DHT22;7057;49.984;8.404;2022-08-14T09:52:52;29.10;99.90
13970;DHT22;7057;49.984;8.404;2022-08-14T09:55:22;29.20;99.90
13970;DHT22;7057;49.984;8.404;2022-08-14T09:57:50;29.30;99.90
13970;DHT22;7057;49.984;8.404;2022-08-14T10:00:18;29.50;99.90
13970;DHT22;7057;49.984;8.404;2022-08-14T10:02:53;29.40;99.90
13970;DHT22;7057;49.984;8.404;2022-08-14T10:05:28;29.50;99.90
13970;DHT22;7057;49.984;8.404;2022-08-14T10:07:56;29.70;99.90
13970;DHT22;7057;49.984;8.404;2022-08-14T10:10:29;29.70;99.90
13970;DHT22;7057;49.984;8.404;2022-08-14T10:12:58;29.80;99.90
13970;DHT22;7057;49.984;8.404;2022-08-14T10:15:27;29.70;99.90
13970;DHT22;7057;49.984;8.404;2022-08-14T10:18:05;29.80;99.90
13970;DHT22;7057;49.984;8.404;2022-08-14T10:20:35;29.90;99.90
13970;DHT22;7057;49.984;8.404;2022-08-14T10:23:14;30.00;99.90
13970;DHT22;7057;49.984;8.404;2022-08-14T10:25:45;30.10;99.90
13970;DHT22;7057;49.984;8.404;2022-08-14T10:28:16;30.30;99.90
13970;DHT22;7057;49.984;8.404;2022-08-14T10:30:48;30.30;99.70
13970;DHT22;7057;49.984;8.404;2022-08-14T10:33:26;30.30;98.50
13970;DHT22;7057;49.984;8.404;2022-08-14T10:35:54;30.20;98.30
13970;DHT22;7057;49.984;8.404;2022-08-14T10:38:26;30.20;98.80
13970;DHT22;7057;49.984;8.404;2022-08-14T10:40:55;30.30;99.00
13970;DHT22;7057;49.984;8.404;2022-08-14T10:43:23;30.40;98.30
13970;DHT22;7057;49.984;8.404;2022-08-14T10:45:53;30.50;97.50
13970;DHT22;7057;49.984;8.404;2022-08-14T10:48:20;30.60;97.80
13970;DHT22;7057;49.984;8.404;2022-08-14T10:50:48;30.70;97.40
13970;DHT22;7057;49.984;8.404;2022-08-14T10:53:27;30.80;96.80
13970;DHT22;7057;49.984;8.404;2022-08-14T10:55:59;30.90;97.60
13970;DHT22;7057;49.984;8.404;2022-08-14T10:58:29;30.90;97.70
13970;DHT22;7057;49.984;8.404;2022-08-14T11:00:58;31.10;96.50
13970;DHT22;7057;49.984;8.404;2022-08-14T11:03:37;31.20;96.00
13970;DHT22;7057;49.984;8.404;2022-08-14T11:06:13;30.90;95.50
13970;DHT22;7057;49.984;8.404;2022-08-14T11:08:41;31.00;95.90
13970;DHT22;7057;49.984;8.404;2022-08-14T11:11:09;30.90;95.00
13970;DHT22;7057;49.984;8.404;2022-08-14T11:13:40;30.70;95.00
13970;DHT22;7057;49.984;8.404;2022-08-14T11:16:09;30.70;95.40
13970;DHT22;7057;49.984;8.404;2022-08-14T11:18:36;31.00;95.60
13970;DHT22;7057;49.984;8.404;2022-08-14T11:21:04;31.20;93.80
13970;DHT22;7057;49.984;8.404;2022-08-14T11:23:34;31.40;94.80
13970;DHT22;7057;49.984;8.404;2022-08-14T11:26:03;31.40;93.60
13970;DHT22;7057;49.984;8.404;2022-08-14T11:28:35;31.40;91.70
13970;DHT22;7057;49.984;8.404;2022-08-14T11:31:04;31.40;93.60
13970;DHT22;7057;49.984;8.404;2022-08-14T11:33:32;31.30;92.40
13970;DHT22;7057;49.984;8.404;2022-08-14T11:36:02;31.40;93.10
13970;DHT22;7057;49.984;8.404;2022-08-14T11:38:35;31.50;92.70
13970;DHT22;7057;49.984;8.404;2022-08-14T11:41:03;31.60;92.10
13970;DHT22;7057;49.984;8.404;2022-08-14T11:43:31;31.50;91.60
13970;DHT22;7057;49.984;8.404;2022-08-14T11:45:59;31.50;91.90
13970;DHT22;7057;49.984;8.404;2022-08-14T11:48:27;31.70;91.00
13970;DHT22;7057;49.984;8.404;2022-08-14T11:50:54;31.50;91.30
13970;DHT22;7057;49.984;8.404;2022-08-14T11:53:23;31.30;91.60
13970;DHT22;7057;49.984;8.404;2022-08-14T11:55:56;31.20;91.60
13970;DHT22;7057;49.984;8.404;2022-08-14T11:58:27;31.40;91.20
13970;DHT22;7057;49.984;8.404;2022-08-14T12:00:57;31.50;91.10
13970;DHT22;7057;49.984;8.404;2022-08-14T12:03:38;31.50;91.10
13970;DHT22;7057;49.984;8.404;2022-08-14T12:06:07;31.70;91.00
13970;DHT22;7057;49.984;8.404;2022-08-14T12:08:35;31.90;90.50
13970;DHT22;7057;49.984;8.404;2022-08-14T12:11:04;32.00;90.60
13970;DHT22;7057;49.984;8.404;2022-08-14T12:13:32;32.10;90.50
13970;DHT22;7057;49.984;8.404;2022-08-14T12:16:01;32.30;89.10
13970;DHT22;7057;49.984;8.404;2022-08-14T12:18:29;32.20;88.20
13970;DHT22;7057;49.984;8.404;2022-08-14T12:21:11;32.30;87.40
13970;DHT22;7057;49.984;8.404;2022-08-14T12:23:39;32.20;87.70
13970;DHT22;7057;49.984;8.404;2022-08-14T12:26:08;32.10;90.00
13970;DHT22;7057;49.984;8.404;2022-08-14T12:28:36;32.30;89.40
13970;DHT22;7057;49.984;8.404;2022-08-14T12:31:15;32.50;85.70
13970;DHT22;7057;49.984;8.404;2022-08-14T12:33:55;32.60;89.00
13970;DHT22;7057;49.984;8.404;2022-08-14T12:36:24;32.60;87.70
13970;DHT22;7057;49.984;8.404;2022-08-14T12:38:55;32.70;87.00
13970;DHT22;7057;49.984;8.404;2022-08-14T12:41:25;32.70;84.60
13970;DHT22;7057;49.984;8.404;2022-08-14T12:43:53;32.60;84.80
13970;DHT22;7057;49.984;8.404;2022-08-14T12:46:24;32.00;86.70
13970;DHT22;7057;49.984;8.404;2022-08-14T12:48:51;32.00;87.40
13970;DHT22;7057;49.984;8.404;2022-08-14T12:51:20;32.20;86.70
13970;DHT22;7057;49.984;8.404;2022-08-14T12:53:49;32.30;83.60
13970;DHT22;7057;49.984;8.404;2022-08-14T12:56:17;32.00;84.90
13970;DHT22;7057;49.984;8.404;2022-08-14T12:58:48;32.30;86.00
13970;DHT22;7057;49.984;8.404;2022-08-14T13:01:20;32.50;85.90
13970;DHT22;7057;49.984;8.404;2022-08-14T13:03:48;32.60;84.90
13970;DHT22;7057;49.984;8.404;2022-08-14T13:06:16;32.70;82.30
13970;DHT22;7057;49.984;8.404;2022-08-14T13:08:44;32.80;84.20
13970;DHT22;7057;49.984;8.404;2022-08-14T13:11:14;32.90;83.40
13970;DHT22;7057;49.984;8.404;2022-08-14T13:13:43;32.80;82.40
13970;DHT22;7057;49.984;8.404;2022-08-14T13:16:12;32.80;81.10
13970;DHT22;7057;49.984;8.404;2022-08-14T13:18:42;32.90;81.90
13970;DHT22;7057;49.984;8.404;2022-08-14T13:21:12;33.00;81.70
13970;DHT22;7057;49.984;8.404;2022-08-14T13:23:40;33.00;80.00
13970;DHT22;7057;49.984;8.404;2022-08-14T13:26:09;32.90;78.50
13970;DHT22;7057;49.984;8.404;2022-08-14T13:28:39;32.80;80.80
13970;DHT22;7057;49.984;8.404;2022-08-14T13:31:08;33.00;79.10
13970;DHT22;7057;49.984;8.404;2022-08-14T13:33:38;33.30;78.10
13970;DHT22;7057;49.984;8.404;2022-08-14T13:36:06;33.30;78.60
13970;DHT22;7057;49.984;8.404;2022-08-14T13:38:34;33.60;80.60
13970;DHT22;7057;49.984;8.404;2022-08-14T13:41:02;33.40;78.40
13970;DHT22;7057;49.984;8.404;2022-08-14T13:43:31;33.40;76.40
13970;DHT22;7057;49.984;8.404;2022-08-14T13:46:00;33.50;78.00
13970;DHT22;7057;49.984;8.404;2022-08-14T13:48:27;33.50;78.20
13970;DHT22;7057;49.984;8.404;2022-08-14T13:50:57;33.70;78.50
13970;DHT22;7057;49.984;8.404;2022-08-14T13:53:25;33.70;74.60
13970;DHT22;7057;49.984;8.404;2022-08-14T13:55:54;33.80;78.20
13970;DHT22;7057;49.984;8.404;2022-08-14T13:58:24;33.80;77.90
13970;DHT22;7057;49.984;8.404;2022-08-14T14:00:52;33.90;76.40
13970;DHT22;7057;49.984;8.404;2022-08-14T14:03:22;33.80;75.90
13970;DHT22;7057;49.984;8.404;2022-08-14T14:05:50;33.50;72.40
13970;DHT22;7057;49.984;8.404;2022-08-14T14:08:20;33.40;73.80
13970;DHT22;7057;49.984;8.404;2022-08-14T14:10:47;33.30;73.20
13970;DHT22;7057;49.984;8.404;2022-08-14T14:13:15;33.50;73.50
13970;DHT22;7057;49.984;8.404;2022-08-14T14:15:43;33.60;73.70
13970;DHT22;7057;49.984;8.404;2022-08-14T14:18:11;33.70;72.80
13970;DHT22;7057;49.984;8.404;2022-08-14T14:20:42;33.60;72.20
13970;DHT22;7057;49.984;8.404;2022-08-14T14:23:12;33.70;74.10
13970;DHT22;7057;49.984;8.404;2022-08-14T14:25:41;33.70;73.60
13970;DHT22;7057;49.984;8.404;2022-08-14T14:28:09;33.70;72.40
13970;DHT22;7057;49.984;8.404;2022-08-14T14:30:39;33.40;73.30
13970;DHT22;7057;49.984;8.404;2022-08-14T14:33:11;33.60;74.00
13970;DHT22;7057;49.984;8.404;2022-08-14T14:35:42;33.70;73.70
13970;DHT22;7057;49.984;8.404;2022-08-14T14:38:13;33.60;71.80
13970;DHT22;7057;49.984;8.404;2022-08-14T14:40:43;33.10;71.80
13970;DHT22;7057;49.984;8.404;2022-08-14T14:43:13;33.20;72.50
13970;DHT22;7057;49.984;8.404;2022-08-14T14:45:43;33.20;72.80
13970;DHT22;7057;49.984;8.404;2022-08-14T14:48:12;33.20;71.10
13970;DHT22;7057;49.984;8.404;2022-08-14T14:50:41;33.00;71.90
13970;DHT22;7057;49.984;8.404;2022-08-14T14:53:08;32.80;71.70
13970;DHT22;7057;49.984;8.404;2022-08-14T14:55:37;32.80;72.40
13970;DHT22;7057;49.984;8.404;2022-08-14T14:58:07;32.90;72.10
13970;DHT22;7057;49.984;8.404;2022-08-14T15:00:34;33.00;73.00
13970;DHT22;7057;49.984;8.404;2022-08-14T15:03:02;33.10;70.60
13970;DHT22;7057;49.984;8.404;2022-08-14T15:05:29;33.10;73.00
13970;DHT22;7057;49.984;8.404;2022-08-14T15:07:57;33.20;72.50
13970;DHT22;7057;49.984;8.404;2022-08-14T15:10:24;33.50;73.10
13970;DHT22;7057;49.984;8.404;2022-08-14T15:12:52;33.70;74.40
13970;DHT22;7057;49.984;8.404;2022-08-14T15:15:20;33.60;72.20
13970;DHT22;7057;49.984;8.404;2022-08-14T15:17:47;33.70;71.80
13970;DHT22;7057;49.984;8.404;2022-08-14T15:20:15;33.70;71.10
13970;DHT22;7057;49.984;8.404;2022-08-14T15:22:42;34.00;70.80
13970;DHT22;7057;49.984;8.404;2022-08-14T15:25:11;34.30;72.60
13970;DHT22;7057;49.984;8.404;2022-08-14T15:27:39;34.30;71.80
13970;DHT22;7057;49.984;8.404;2022-08-14T15:30:08;34.30;75.30
13970;DHT22;7057;49.984;8.404;2022-08-14T15:32:35;34.00;71.10
13970;DHT22;7057;49.984;8.404;2022-08-14T15:35:03;33.50;70.40
13970;DHT22;7057;49.984;8.404;2022-08-14T15:37:30;33.60;71.80
13970;DHT22;7057;49.984;8.404;2022-08-14T15:40:00;33.70;70.70
13970;DHT22;7057;49.984;8.404;2022-08-14T15:42:29;33.80;68.80
13970;DHT22;7057;49.984;8.404;2022-08-14T15:44:58;33.80;70.00
13970;DHT22;7057;49.984;8.404;2022-08-14T15:47:26;33.70;70.80
13970;DHT22;7057;49.984;8.404;2022-08-14T15:49:53;33.60;71.60
13970;DHT22;7057;49.984;8.404;2022-08-14T15:52:21;33.70;72.10
13970;DHT22;7057;49.984;8.404;2022-08-14T15:54:48;33.70;69.60
13970;DHT22;7057;49.984;8.404;2022-08-14T15:57:15;33.60;72.30
13970;DHT22;7057;49.984;8.404;2022-08-14T15:59:46;33.50;71.20